LTBSLTFJ

Guest
Details From LTBS - DALAMAN
To LTFJ - SABIHA GOKCEN
Flight Number -
Tags decoded
Created
Modified
Stats Distance 321 nm / 595 km
Max Altitude 0 ft / 0 m
Waypoints 7
Social Downloads 2
Likes 0
Share VATSIM

Download

Looking for another format? Having issues loading an existing format? Contact us
Advertisement - Login to hide

Notes

Requested: LTBS DAL05 GML10 ESKIN SADIK R2486 LTFJ

Route

LTBS DAL05 GML10 ESKIN SADIK R2486 LTFJ

ID Type Via Altitude Latitude Longitude Leg Dist Tot Dist Heading (true) Name
O LTBS APT - 0 ft / 0 m 36.71319˚ 28.79251˚ - 0 nm - DALAMAN
DAL05 FIX - 0 ft / 0 m 36.77057˚ 28.80704˚ 3 nm 3 nm 11° / 11° -
GML10 FIX - 0 ft / 0 m 37.32659˚ 27.35201˚ 77 nm 80 nm 296° / 295° -
ESKIN FIX - 0 ft / 0 m 39.05000˚ 28.39806˚ 114 nm 195 nm 25° / 26° -
SADIK FIX - 0 ft / 0 m 40.67806˚ 28.80917˚ 99 nm 295 nm 11° / 11° -
R2486 FIX - 0 ft / 0 m 40.89274˚ 29.29343˚ 25 nm 320 nm 59° / 60° -
O LTFJ APT - 0 ft / 0 m 40.89855˚ 29.30922˚ 0 nm 321 nm 64° / 64° SABIHA GOKCEN

Altitude Profile

Advertisement - Login to hide

Weather


0- 5 10 15 20 25 30 35+ Temperature / ° C

Clouds and Precipitation
Forecast for 2017-12-13 12:00 UTC. Updated 2 hours ago

Ground ~20,000 ft ~40,000 ft Winds

LTBS

Details ICAO LTBS (DLM)
Name DALAMAN
Region Turkey
Timezone Europe/Istanbul (UTC+3.0)
Stats Elevation 20 ft / 6 m (AMSL)
Location 36.713189° 28.792513°
Runways 1
Magnetic Variation 4.879° E

METAR

LTBS 131250Z 26009KT CAVOK 20/10 Q1018 NOSIG

Decode

TAF

Not found

Departure Runways

ID Width Length Bearing (true) Bearing (mag) Surface Threshold Offset Overrun Length
01 148 ft / 45 m 9,851 ft / 3,003 m 15.24° 10.36° Concrete 0 ft / 0 m 197 ft / 60 m
19 148 ft / 45 m 9,851 ft / 3,003 m 195.25° 190.37° Concrete 0 ft / 0 m 197 ft / 60 m

LTFJ

Details ICAO LTFJ (SAW)
Name SABIHA GOKCEN
Region Turkey
Timezone Europe/Istanbul (UTC+3.0)
Stats Elevation 312 ft / 95 m (AMSL)
Location 40.898552° 29.309221°
Runways 1
Magnetic Variation 5.473° E

METAR

LTFJ 131250Z 26010KT CAVOK 17/08 Q1018 NOSIG

Decode

TAF

Not found

Destination Runways

ID Width Length Bearing (true) Bearing (mag) Surface Threshold Offset Overrun Length
06 148 ft / 45 m 9,690 ft / 2,953 m 64.01° 58.54° Concrete 0 ft / 0 m 197 ft / 60 m
24 148 ft / 45 m 9,690 ft / 2,953 m 244.03° 238.56° Concrete 0 ft / 0 m 197 ft / 60 m

Approach Navaids

Runway Type Ident Frequency Range Bearing (true) Bearing (mag) Slope Elevation
06 Localiser ISAB 109.90 MHz 18 nm / 33 km 64.03° 58.56° - 293 ft / 89 m (AMSL)
06 Glidescope ISAB 109.90 MHz 10 nm / 19 km 64.02° 58.55° 3.50° 294 ft / 90 m (AMSL)
06 DME ISAB 109.90 MHz 18 nm / 33 km - - - 312 ft / 95 m (AMSL)
24 Localiser ISBH 110.90 MHz 18 nm / 33 km 244.01° 238.54° - 285 ft / 87 m (AMSL)
24 Glidescope ISBH 110.90 MHz 10 nm / 19 km 244.02° 238.55° 3.50° 299 ft / 91 m (AMSL)
24 DME ISBH 110.90 MHz 18 nm / 33 km - - - 318 ft / 97 m (AMSL)

Popular Alternatives